createdAt,value
2023-04-16T00:02:11.686Z,79.75
2023-04-16T00:05:14.891Z,79.38
2023-04-16T00:08:16.974Z,78.99
2023-04-16T00:11:19.098Z,78.99
2023-04-16T00:14:20.910Z,78.43
2023-04-16T00:17:22.850Z,78.88
2023-04-16T00:20:24.760Z,80.73
2023-04-16T00:23:26.675Z,81.32
2023-04-16T00:26:28.550Z,81.33
2023-04-16T00:29:31.102Z,81.62
2023-04-16T00:32:33.140Z,82.39
2023-04-16T00:35:35.127Z,82.67
2023-04-16T00:38:37.394Z,83.11
2023-04-16T00:41:39.300Z,83.52
2023-04-16T00:44:41.266Z,83.46
2023-04-16T00:47:43.227Z,83.37
2023-04-16T00:50:45.453Z,82.73
2023-04-16T00:53:48.056Z,82.98
2023-04-16T00:56:51.041Z,82.88
2023-04-16T00:59:54.237Z,83.70
2023-04-16T01:02:56.532Z,84.38
2023-04-16T01:05:58.872Z,84.31
2023-04-16T01:09:00.806Z,84.54
2023-04-16T01:12:02.833Z,84.64
2023-04-16T01:15:05.195Z,84.31
2023-04-16T01:18:17.467Z,84.78
2023-04-16T01:21:19.347Z,85.04
2023-04-16T01:24:21.310Z,85.04
2023-04-16T01:27:23.206Z,84.05
2023-04-16T01:30:25.773Z,83.85
2023-04-16T01:33:59.974Z,83.76
2023-04-16T01:37:04.149Z,83.59
2023-04-16T01:40:06.937Z,82.54
2023-04-16T01:43:08.938Z,82.66
2023-04-16T01:46:20.504Z,81.93
2023-04-16T01:49:23.572Z,82.15
2023-04-16T01:52:25.538Z,82.11
2023-04-16T01:55:27.432Z,82.54
2023-04-16T01:58:30.265Z,82.30
2023-04-16T02:01:32.633Z,82.19
2023-04-16T02:04:34.588Z,82.33
2023-04-16T02:07:36.529Z,82.31
2023-04-16T02:10:38.522Z,82.44
2023-04-16T02:13:40.772Z,82.30
2023-04-16T02:16:42.667Z,81.78
2023-04-16T02:19:52.201Z,82.52
2023-04-16T02:22:54.574Z,83.16
2023-04-16T02:25:58.818Z,82.95
2023-04-16T02:29:01.442Z,82.10
2023-04-16T02:32:11.273Z,82.26
2023-04-16T02:35:13.474Z,82.00
2023-04-16T02:38:15.356Z,81.42
2023-04-16T02:41:17.534Z,81.55
2023-04-16T02:44:19.562Z,81.83
2023-04-16T02:47:22.862Z,81.64
2023-04-16T02:50:24.778Z,81.72
2023-04-16T02:53:26.777Z,82.23
2023-04-16T02:56:28.714Z,82.06
2023-04-16T02:59:30.785Z,81.82
2023-04-16T03:02:32.998Z,82.14
2023-04-16T03:05:35.039Z,82.44
2023-04-16T03:08:36.906Z,82.68
2023-04-16T03:11:38.967Z,83.23
2023-04-16T03:14:41.242Z,83.40
2023-04-16T03:17:43.190Z,84.14
2023-04-16T03:20:45.459Z,83.97
2023-04-16T03:23:47.859Z,84.00
2023-04-16T03:26:49.828Z,83.81
2023-04-16T03:29:52.535Z,83.47
2023-04-16T03:32:54.491Z,83.17
2023-04-16T03:35:59.420Z,82.74
2023-04-16T03:39:04.942Z,82.33
2023-04-16T03:42:07.109Z,81.30
2023-04-16T03:45:10.614Z,81.24
2023-04-16T03:48:13.989Z,82.17
2023-04-16T03:51:16.176Z,82.67
2023-04-16T03:54:18.723Z,83.53
2023-04-16T03:57:26.605Z,83.50
2023-04-16T04:00:32.583Z,83.69
2023-04-16T04:03:46.675Z,83.18
2023-04-16T04:06:49.043Z,81.41
2023-04-16T04:09:51.365Z,81.10
2023-04-16T04:12:53.362Z,81.81
2023-04-16T04:15:55.914Z,82.52
2023-04-16T04:19:00.154Z,82.31
2023-04-16T04:22:02.398Z,81.42
2023-04-16T04:25:04.697Z,80.86
2023-04-16T04:28:07.971Z,81.95
2023-04-16T04:31:10.083Z,80.30
2023-04-16T04:34:12.102Z,81.25
2023-04-16T04:37:13.941Z,81.06
2023-04-16T04:40:16.071Z,79.88
2023-04-16T04:43:22.130Z,79.73
2023-04-16T04:46:25.439Z,79.28
2023-04-16T04:49:27.493Z,78.22
2023-04-16T04:52:29.760Z,78.71
2023-04-16T04:55:31.687Z,78.99
2023-04-16T04:58:34.208Z,80.76
2023-04-16T05:01:36.955Z,82.02
2023-04-16T05:04:38.888Z,81.73
2023-04-16T05:07:41.033Z,81.72
2023-04-16T05:10:43.067Z,81.59
2023-04-16T05:13:44.928Z,82.67
2023-04-16T05:16:46.930Z,82.62
2023-04-16T05:19:49.094Z,82.90
2023-04-16T05:22:51.456Z,81.83
2023-04-16T05:25:53.322Z,81.67
2023-04-16T05:28:55.260Z,80.79
2023-04-16T05:31:57.166Z,80.09
2023-04-16T05:34:59.122Z,78.63
2023-04-16T05:38:01.078Z,77.63
2023-04-16T05:41:02.969Z,77.38
2023-04-16T05:44:05.120Z,77.80
2023-04-16T05:47:09.329Z,76.54
2023-04-16T05:50:11.386Z,76.82
2023-04-16T05:53:14.295Z,77.52
2023-04-16T05:56:16.268Z,78.29
2023-04-16T05:59:18.648Z,76.18
2023-04-16T06:02:20.900Z,75.94
2023-04-16T06:05:22.869Z,77.23
2023-04-16T06:08:25.120Z,75.50
2023-04-16T06:11:27.621Z,76.86
2023-04-16T06:14:29.576Z,77.14
2023-04-16T06:17:31.611Z,75.23
2023-04-16T06:20:33.779Z,74.44
2023-04-16T06:23:36.329Z,74.86
2023-04-16T06:26:38.215Z,74.60
2023-04-16T06:29:41.867Z,73.39
2023-04-16T06:32:44.560Z,74.18
2023-04-16T06:35:46.491Z,74.83
2023-04-16T06:38:48.321Z,74.21
2023-04-16T06:41:50.324Z,74.10
2023-04-16T06:44:53.416Z,72.45
2023-04-16T06:47:55.344Z,73.74
2023-04-16T06:50:57.374Z,71.93
2023-04-16T06:53:59.680Z,69.95
2023-04-16T06:57:01.605Z,70.68
2023-04-16T07:00:05.149Z,70.41
2023-04-16T07:03:07.282Z,69.26
2023-04-16T07:06:10.341Z,68.89
2023-04-16T07:09:12.515Z,67.87
2023-04-16T07:12:14.563Z,64.96
2023-04-16T07:15:16.896Z,64.58
2023-04-16T07:18:20.318Z,63.14
2023-04-16T07:21:22.815Z,63.25
2023-04-16T07:24:24.805Z,63.09
2023-04-16T07:27:27.210Z,63.35
2023-04-16T07:30:34.179Z,63.38
2023-04-16T07:33:36.452Z,63.69
2023-04-16T07:36:38.936Z,65.27
2023-04-16T07:39:41.412Z,63.64
2023-04-16T07:42:43.480Z,64.00
2023-04-16T07:45:45.581Z,63.17
2023-04-16T07:48:47.591Z,62.70
2023-04-16T07:51:49.640Z,63.20
2023-04-16T07:54:51.910Z,63.24
2023-04-16T07:57:54.054Z,62.34
2023-04-16T08:00:56.325Z,62.34
2023-04-16T08:03:58.560Z,62.58
2023-04-16T08:07:00.601Z,60.43
2023-04-16T08:10:02.618Z,61.41
2023-04-16T08:13:04.631Z,61.00
2023-04-16T08:16:06.835Z,61.61
2023-04-16T08:19:09.113Z,62.80
2023-04-16T08:22:12.775Z,61.29
2023-04-16T08:25:15.537Z,61.74
2023-04-16T08:28:17.421Z,61.45
2023-04-16T08:31:19.601Z,62.66
2023-04-16T08:34:21.650Z,61.95
2023-04-16T08:37:23.508Z,61.37
2023-04-16T08:40:28.685Z,61.60
2023-04-16T08:43:34.701Z,62.96
2023-04-16T08:46:37.891Z,60.24
2023-04-16T08:49:45.165Z,60.25
2023-04-16T08:53:11.135Z,60.12
2023-04-16T08:56:14.774Z,60.74
2023-04-16T08:59:17.463Z,61.22
2023-04-16T09:02:19.730Z,60.07
2023-04-16T09:05:25.629Z,59.82
2023-04-16T09:08:28.178Z,59.90
2023-04-16T09:11:30.427Z,59.09
2023-04-16T09:14:32.717Z,58.46
2023-04-16T09:17:35.082Z,59.62
2023-04-16T09:20:37.015Z,58.17
2023-04-16T09:23:40.111Z,57.31
2023-04-16T09:26:45.700Z,55.57
2023-04-16T09:29:47.667Z,56.26
2023-04-16T09:32:51.526Z,55.92
2023-04-16T09:35:53.495Z,54.42
2023-04-16T09:38:57.488Z,53.49
2023-04-16T09:41:59.927Z,53.28
2023-04-16T09:45:04.871Z,54.09
2023-04-16T09:48:07.737Z,54.26
2023-04-16T09:51:09.727Z,53.98
2023-04-16T09:54:11.684Z,53.88
2023-04-16T09:57:13.679Z,53.55
2023-04-16T10:00:18.813Z,52.24
2023-04-16T10:03:32.478Z,54.00
2023-04-16T10:06:34.568Z,51.72
2023-04-16T10:09:38.515Z,51.40
2023-04-16T10:12:41.069Z,52.58
2023-04-16T10:15:43.599Z,51.44
2023-04-16T10:18:47.413Z,53.20
2023-04-16T10:21:51.378Z,51.50
2023-04-16T10:24:54.457Z,52.07
2023-04-16T10:27:57.399Z,50.53
2023-04-16T10:31:01.607Z,49.46
2023-04-16T10:34:04.137Z,49.99
2023-04-16T10:37:05.981Z,49.50
2023-04-16T10:40:28.212Z,49.04
2023-04-16T10:43:39.114Z,50.38
2023-04-16T10:46:42.983Z,51.21
2023-04-16T10:49:48.215Z,51.05
2023-04-16T10:53:20.657Z,51.41
2023-04-16T10:56:27.669Z,47.90
2023-04-16T10:59:35.021Z,49.59
2023-04-16T11:02:41.321Z,48.13
2023-04-16T11:05:49.044Z,48.49
2023-04-16T11:08:55.088Z,46.77
2023-04-16T11:11:57.660Z,47.54
2023-04-16T11:15:08.334Z,45.97
2023-04-16T11:18:10.918Z,46.31
2023-04-16T11:21:13.548Z,45.83
2023-04-16T11:24:15.419Z,44.11
2023-04-16T11:27:17.490Z,43.92
2023-04-16T11:30:28.543Z,43.47
2023-04-16T11:33:31.616Z,44.70
2023-04-16T11:36:50.621Z,44.14
2023-04-16T11:39:53.176Z,44.04
2023-04-16T11:42:55.079Z,43.71
2023-04-16T11:45:57.063Z,43.00
2023-04-16T11:48:59.950Z,43.11
2023-04-16T11:52:02.171Z,44.25
2023-04-16T11:55:04.403Z,45.75
2023-04-16T11:58:13.671Z,46.55
2023-04-16T12:01:21.072Z,44.55
2023-04-16T12:04:27.467Z,44.49
2023-04-16T12:07:29.608Z,47.13
2023-04-16T12:10:35.203Z,43.87
2023-04-16T12:13:40.209Z,44.75
2023-04-16T12:16:42.335Z,45.47
2023-04-16T12:20:00.238Z,44.52
2023-04-16T12:23:02.216Z,43.96
2023-04-16T12:26:10.836Z,44.28
2023-04-16T12:29:28.067Z,45.50
2023-04-16T12:32:30.010Z,44.80
2023-04-16T12:35:33.591Z,43.95
2023-04-16T12:38:35.728Z,44.03
2023-04-16T12:41:39.285Z,43.54
2023-04-16T12:44:41.242Z,42.71
2023-04-16T12:47:43.175Z,42.96
2023-04-16T12:50:45.133Z,43.24
2023-04-16T12:53:47.042Z,45.06
2023-04-16T12:56:48.937Z,42.99
2023-04-16T12:59:51.017Z,42.89
2023-04-16T13:02:53.151Z,44.26
2023-04-16T13:05:56.992Z,43.74
2023-04-16T13:08:59.145Z,42.82
2023-04-16T13:12:01.679Z,42.07
2023-04-16T13:15:05.243Z,41.98
2023-04-16T13:18:07.186Z,43.24
2023-04-16T13:21:09.383Z,43.72
2023-04-16T13:24:11.344Z,44.49
2023-04-16T13:27:16.087Z,43.88
2023-04-16T13:30:18.172Z,42.83
2023-04-16T13:33:21.411Z,42.71
2023-04-16T13:36:24.703Z,42.92
2023-04-16T13:39:28.763Z,43.68
2023-04-16T13:42:32.592Z,43.91
2023-04-16T13:45:34.632Z,43.57
2023-04-16T13:48:37.356Z,43.67
2023-04-16T13:51:39.283Z,43.47
2023-04-16T13:54:41.532Z,44.46
2023-04-16T13:57:56.328Z,43.76
2023-04-16T14:00:58.350Z,41.94
2023-04-16T14:04:06.188Z,41.92
2023-04-16T14:07:08.442Z,41.78
2023-04-16T14:10:10.798Z,42.10
2023-04-16T14:13:13.227Z,41.54
2023-04-16T14:16:15.715Z,41.87
2023-04-16T14:19:17.833Z,41.86
2023-04-16T14:22:21.128Z,41.33
2023-04-16T14:25:23.843Z,42.69
2023-04-16T14:28:26.049Z,40.52
2023-04-16T14:31:28.445Z,41.40
2023-04-16T14:34:30.554Z,42.43
2023-04-16T14:37:35.857Z,41.65
2023-04-16T14:40:38.375Z,41.52
2023-04-16T14:43:41.429Z,40.27
2023-04-16T14:46:43.826Z,39.57
2023-04-16T14:49:45.811Z,40.81
2023-04-16T14:52:47.862Z,40.88
2023-04-16T14:55:51.921Z,41.45
2023-04-16T14:58:53.857Z,41.89
2023-04-16T15:01:59.210Z,41.31
2023-04-16T15:05:01.511Z,42.95
2023-04-16T15:08:03.926Z,41.98
2023-04-16T15:11:06.034Z,41.22
2023-04-16T15:14:08.192Z,40.55
2023-04-16T15:17:10.318Z,40.40
2023-04-16T15:20:12.811Z,41.04
2023-04-16T15:23:14.738Z,39.38
2023-04-16T15:26:16.858Z,39.44
2023-04-16T15:29:18.804Z,39.42
2023-04-16T15:32:21.143Z,37.89
2023-04-16T15:35:24.820Z,38.87
2023-04-16T15:38:28.669Z,39.60
2023-04-16T15:41:32.011Z,40.82
2023-04-16T15:44:34.722Z,41.06
2023-04-16T15:47:37.989Z,40.60
2023-04-16T15:50:41.945Z,41.03
2023-04-16T15:53:45.337Z,41.99
2023-04-16T15:56:47.615Z,41.74
2023-04-16T16:00:05.369Z,42.67
2023-04-16T16:06:27.189Z,43.82
2023-04-16T16:09:31.594Z,42.99
2023-04-16T16:12:33.766Z,43.64
2023-04-16T16:15:35.976Z,43.73
2023-04-16T16:18:38.158Z,43.87
2023-04-16T16:21:40.085Z,43.63
2023-04-16T16:24:42.295Z,42.79
2023-04-16T16:27:44.650Z,43.76
2023-04-16T16:30:47.530Z,44.06
2023-04-16T16:33:49.969Z,43.93
2023-04-16T16:36:51.995Z,43.92
2023-04-16T16:39:54.040Z,43.95
2023-04-16T16:42:56.147Z,44.65
2023-04-16T16:45:58.324Z,44.59
2023-04-16T16:49:00.993Z,45.34
2023-04-16T16:52:03.130Z,46.19
2023-04-16T16:55:08.695Z,46.58
2023-04-16T16:58:11.266Z,46.52
2023-04-16T17:01:13.751Z,47.40
2023-04-16T17:04:17.168Z,47.25
2023-04-16T17:10:36.454Z,49.02
2023-04-16T17:13:39.627Z,49.57
2023-04-16T17:16:41.746Z,50.04
2023-04-16T17:19:44.257Z,50.67
2023-04-16T17:22:46.320Z,51.06
2023-04-16T17:25:48.585Z,51.46
2023-04-16T17:28:51.065Z,51.37
2023-04-16T17:31:53.900Z,51.59
2023-04-16T17:34:56.394Z,50.67
2023-04-16T17:37:58.578Z,51.12
2023-04-16T17:41:00.561Z,51.54
2023-04-16T17:44:02.909Z,52.13
2023-04-16T17:47:05.291Z,51.93
2023-04-16T17:50:11.484Z,51.39
2023-04-16T17:53:13.662Z,52.05
2023-04-16T17:56:15.951Z,52.04
2023-04-16T17:59:17.942Z,52.33
2023-04-16T18:02:20.538Z,53.14
2023-04-16T18:05:33.070Z,53.06
2023-04-16T18:08:36.991Z,53.19
2023-04-16T18:11:39.574Z,53.22
2023-04-16T18:14:44.723Z,53.22
2023-04-16T18:17:47.093Z,51.93
2023-04-16T18:20:49.425Z,50.96
2023-04-16T18:23:51.481Z,49.89
2023-04-16T18:26:55.135Z,49.50
2023-04-16T18:29:57.497Z,49.83
2023-04-16T18:33:26.344Z,50.37
2023-04-16T18:36:22.530Z,48.62
2023-04-16T18:39:24.620Z,47.37
2023-04-16T18:42:29.616Z,47.50
2023-04-16T18:45:34.299Z,46.29
2023-04-16T18:48:36.901Z,46.13
2023-04-16T18:51:40.106Z,45.48
2023-04-16T18:54:42.320Z,45.69
2023-04-16T18:57:44.162Z,46.61
2023-04-16T19:00:46.664Z,47.89
2023-04-16T19:03:48.963Z,48.86
2023-04-16T19:06:51.173Z,49.34
2023-04-16T19:09:53.398Z,49.89
2023-04-16T19:12:58.339Z,50.84
2023-04-16T19:16:01.646Z,51.68
2023-04-16T19:19:03.712Z,52.11
2023-04-16T19:22:05.617Z,52.67
2023-04-16T19:25:08.188Z,53.30
2023-04-16T19:28:10.346Z,53.27
2023-04-16T19:31:12.570Z,53.57
2023-04-16T19:34:15.572Z,54.01
2023-04-16T19:37:17.511Z,53.64
2023-04-16T19:40:19.642Z,53.79
2023-04-16T19:43:21.597Z,54.23
2023-04-16T19:46:24.060Z,54.02
2023-04-16T19:49:26.342Z,54.64
2023-04-16T19:52:29.053Z,54.48
2023-04-16T19:55:31.290Z,55.03
2023-04-16T19:58:33.534Z,55.32
2023-04-16T20:01:36.025Z,55.62
2023-04-16T20:04:38.423Z,55.68
2023-04-16T20:07:40.760Z,56.18
2023-04-16T20:10:42.764Z,55.69
2023-04-16T20:13:48.185Z,55.98
2023-04-16T20:16:50.324Z,56.69
2023-04-16T20:19:52.736Z,56.43
2023-04-16T20:22:55.256Z,56.05
2023-04-16T20:25:57.309Z,56.13
2023-04-16T20:29:02.884Z,56.36
2023-04-16T20:32:05.863Z,56.62
2023-04-16T20:35:10.778Z,57.42
2023-04-16T20:38:13.152Z,57.62
2023-04-16T20:41:21.058Z,57.74
2023-04-16T20:44:40.280Z,58.52
2023-04-16T20:47:43.481Z,59.37
2023-04-16T20:50:46.018Z,59.41
2023-04-16T20:53:47.871Z,59.55
2023-04-16T20:56:50.415Z,59.70
2023-04-16T20:59:52.505Z,59.86
2023-04-16T21:02:54.878Z,59.45
2023-04-16T21:05:56.907Z,59.73
2023-04-16T21:08:59.117Z,60.16
2023-04-16T21:12:01.785Z,60.61
2023-04-16T21:15:04.827Z,60.48
2023-04-16T21:18:07.694Z,60.38
2023-04-16T21:21:09.659Z,59.75
2023-04-16T21:24:11.614Z,59.50
2023-04-16T21:27:13.483Z,59.81
2023-04-16T21:30:15.851Z,59.92
2023-04-16T21:33:17.803Z,60.36
2023-04-16T21:36:19.822Z,60.33
2023-04-16T21:39:22.104Z,60.55
2023-04-16T21:42:24.275Z,60.72
2023-04-16T21:45:26.242Z,61.11
2023-04-16T21:48:28.641Z,61.08
2023-04-16T21:51:30.579Z,61.59
2023-04-16T21:54:32.403Z,61.90
2023-04-16T21:57:34.422Z,61.53
2023-04-16T22:00:36.395Z,62.02
2023-04-16T22:03:40.487Z,62.42
2023-04-16T22:06:43.157Z,61.93
2023-04-16T22:09:45.033Z,62.11
2023-04-16T22:12:46.914Z,62.44
2023-04-16T22:15:48.737Z,62.39
2023-04-16T22:18:51.168Z,62.32
2023-04-16T22:21:53.101Z,61.79
2023-04-16T22:24:54.985Z,62.27
2023-04-16T22:27:56.862Z,62.44
2023-04-16T22:30:58.795Z,62.46
2023-04-16T22:34:02.847Z,62.57
2023-04-16T22:37:06.132Z,62.81
2023-04-16T22:40:09.787Z,63.35
2023-04-16T22:43:11.794Z,63.05
2023-04-16T22:46:13.646Z,63.24
2023-04-16T22:49:15.537Z,63.37
2023-04-16T22:52:17.407Z,63.61
2023-04-16T22:55:19.471Z,63.54
2023-04-16T22:58:21.927Z,63.94
2023-04-16T23:01:24.453Z,63.95
2023-04-16T23:04:26.497Z,64.13
2023-04-16T23:07:28.485Z,64.04
2023-04-16T23:10:30.325Z,64.30
2023-04-16T23:13:32.373Z,63.93
2023-04-16T23:16:34.232Z,64.12
2023-04-16T23:19:36.231Z,64.35
2023-04-16T23:22:38.312Z,63.98
2023-04-16T23:25:41.378Z,63.99
2023-04-16T23:28:43.220Z,63.99
2023-04-16T23:31:45.108Z,64.00
2023-04-16T23:34:47.174Z,64.19
2023-04-16T23:37:49.491Z,63.87
2023-04-16T23:40:51.627Z,64.05
2023-04-16T23:43:53.858Z,64.07
2023-04-16T23:46:55.719Z,63.98
2023-04-16T23:49:57.716Z,64.04
2023-04-16T23:52:59.691Z,64.55
2023-04-16T23:56:01.592Z,64.66
2023-04-16T23:59:03.514Z,64.17
